Time;durP1;ratioP1;P1;durP2;ratioP2;P2;SDS_P1;SDS_P2;PMS_P1;PMS_P2;Temp;Humidity;BMP_temperature;BMP_pressure;BME280_temperature;BME280_humidity;BME280_pressure;Samples;Min_cycle;Max_cycle;Signal;HPM_P1;HPM_P2
2024/01/17 00:00:59;;;;;;;3.73;0.90;;;;;;;;;;5026359;28;20243;-74
2024/01/17 00:03:25;;;;;;;0.20;0.20;;;;;;;;;;5020026;28;20227;-74
2024/01/17 00:05:53;;;;;;;0.70;0.70;;;;;;;;;;5022864;28;20647;-75
2024/01/17 00:08:20;;;;;;;0.40;0.40;;;;;;;;;;5022290;28;20323;-75
2024/01/17 00:10:46;;;;;;;0.80;0.80;;;;;;;;;;5020779;28;20244;-74
2024/01/17 00:13:12;;;;;;;0.30;0.30;;;;;;;;;;5022398;28;20235;-74
2024/01/17 00:15:39;;;;;;;0.70;0.70;;;;;;;;;;5019785;28;20228;-74
2024/01/17 00:18:06;;;;;;;0.67;0.67;;;;;;;;;;5023425;28;20236;-74
2024/01/17 00:20:32;;;;;;;0.30;0.30;;;;;;;;;;5023480;28;20243;-75
2024/01/17 00:22:59;;;;;;;0.40;0.40;;;;;;;;;;5037341;28;20270;-75
2024/01/17 00:25:25;;;;;;;0.33;0.33;;;;;;;;;;5023759;28;20220;-74
2024/01/17 00:27:52;;;;;;;0.83;0.83;;;;;;;;;;5022984;28;20589;-74
2024/01/17 00:30:18;;;;;;;0.37;0.37;;;;;;;;;;5026487;28;20254;-74
2024/01/17 00:32:45;;;;;;;1.50;0.97;;;;;;;;;;5021557;28;20220;-75
2024/01/17 00:35:12;;;;;;;0.30;0.30;;;;;;;;;;5022130;28;20230;-75
2024/01/17 00:37:38;;;;;;;0.50;0.50;;;;;;;;;;5022771;28;20238;-75
2024/01/17 00:40:08;;;;;;;0.60;0.60;;;;;;;;;;5023283;28;20696;-75
2024/01/17 00:42:37;;;;;;;0.40;0.40;;;;;;;;;;5032882;28;20224;-75
2024/01/17 00:45:06;;;;;;;1.40;1.33;;;;;;;;;;5023440;28;20231;-75
2024/01/17 00:47:32;;;;;;;0.40;0.40;;;;;;;;;;5022063;28;20282;-74
2024/01/17 00:49:58;;;;;;;0.77;0.70;;;;;;;;;;5029935;28;20209;-74
2024/01/17 00:52:25;;;;;;;0.43;0.43;;;;;;;;;;5053715;28;20219;-75
2024/01/17 00:54:52;;;;;;;0.60;0.60;;;;;;;;;;5045959;28;20224;-74
2024/01/17 00:57:18;;;;;;;0.30;0.30;;;;;;;;;;5022816;28;20234;-75
2024/01/17 00:59:45;;;;;;;0.40;0.40;;;;;;;;;;5021552;28;20239;-74
2024/01/17 01:02:11;;;;;;;0.40;0.40;;;;;;;;;;5023077;28;20228;-74
2024/01/17 01:04:38;;;;;;;0.30;0.30;;;;;;;;;;5033157;28;20239;-75
2024/01/17 01:07:04;;;;;;;0.87;0.87;;;;;;;;;;5020226;28;20228;-74
2024/01/17 01:09:31;;;;;;;0.93;0.93;;;;;;;;;;5017645;28;20827;-74
2024/01/17 01:11:57;;;;;;;0.50;0.50;;;;;;;;;;5019578;28;20298;-74
2024/01/17 01:14:23;;;;;;;1.20;1.10;;;;;;;;;;5037189;28;20239;-74
2024/01/17 01:16:50;;;;;;;0.30;0.30;;;;;;;;;;5023098;28;20290;-75
2024/01/17 01:19:16;;;;;;;0.97;0.73;;;;;;;;;;5020522;28;20219;-74
2024/01/17 01:21:43;;;;;;;1.27;1.17;;;;;;;;;;5034510;28;20228;-74
2024/01/17 01:24:09;;;;;;;0.63;0.60;;;;;;;;;;5018606;28;20224;-75
2024/01/17 01:26:36;;;;;;;0.33;0.33;;;;;;;;;;5022856;28;20220;-74
2024/01/17 01:29:02;;;;;;;1.13;1.03;;;;;;;;;;5039981;28;20228;-74
2024/01/17 01:31:29;;;;;;;0.30;0.30;;;;;;;;;;5022429;28;20224;-75
2024/01/17 01:33:55;;;;;;;0.23;0.23;;;;;;;;;;5028060;28;20307;-74
2024/01/17 01:36:22;;;;;;;0.30;0.30;;;;;;;;;;5030141;28;20327;-74
2024/01/17 01:38:50;;;;;;;0.30;0.30;;;;;;;;;;5033509;28;20224;-75
2024/01/17 01:41:16;;;;;;;0.30;0.30;;;;;;;;;;5024025;28;20239;-74
2024/01/17 01:43:43;;;;;;;0.73;0.73;;;;;;;;;;5020967;28;20224;-74
2024/01/17 01:46:17;;;;;;;5.53;1.53;;;;;;;;;;5022285;28;20231;-74
2024/01/17 01:48:44;;;;;;;0.30;0.30;;;;;;;;;;5024643;28;20224;-74
2024/01/17 01:51:12;;;;;;;0.57;0.57;;;;;;;;;;5022234;28;20235;-74
2024/01/17 01:53:42;;;;;;;0.77;0.77;;;;;;;;;;5023994;28;20219;-74
2024/01/17 01:56:10;;;;;;;0.97;0.97;;;;;;;;;;5019773;28;20231;-74
2024/01/17 01:58:39;;;;;;;0.30;0.30;;;;;;;;;;5022855;28;20299;-74
2024/01/17 02:01:08;;;;;;;0.30;0.30;;;;;;;;;;5023963;28;20232;-75
2024/01/17 02:03:35;;;;;;;1.13;1.10;;;;;;;;;;5018873;28;20263;-74
2024/01/17 02:06:02;;;;;;;0.50;0.50;;;;;;;;;;5018247;28;20267;-74
2024/01/17 02:08:29;;;;;;;0.33;0.33;;;;;;;;;;5021302;28;20951;-75
2024/01/17 02:10:56;;;;;;;0.87;0.87;;;;;;;;;;5021260;28;20228;-75
2024/01/17 02:13:23;;;;;;;0.53;0.53;;;;;;;;;;5014361;28;20232;-75
2024/01/17 02:15:49;;;;;;;0.60;0.60;;;;;;;;;;5023206;28;20231;-75
2024/01/17 02:18:16;;;;;;;0.60;0.60;;;;;;;;;;5021807;28;20234;-74
2024/01/17 02:20:42;;;;;;;2.20;2.00;;;;;;;;;;5019722;28;20224;-74
2024/01/17 02:23:41;;;;;;;0.30;0.30;;;;;;;;;;5018448;28;20305;-74
2024/01/17 02:26:08;;;;;;;0.77;0.77;;;;;;;;;;4997813;28;20314;-74
2024/01/17 02:28:35;;;;;;;0.20;0.20;;;;;;;;;;5026478;28;20604;-74
2024/01/17 02:31:04;;;;;;;0.90;0.90;;;;;;;;;;5024664;28;20323;-74
2024/01/17 02:33:31;;;;;;;0.30;0.30;;;;;;;;;;5026345;28;20235;-74
2024/01/17 02:35:58;;;;;;;0.60;0.60;;;;;;;;;;5028569;28;20584;-74
2024/01/17 02:38:25;;;;;;;0.50;0.50;;;;;;;;;;5028304;28;20314;-74
2024/01/17 02:40:51;;;;;;;1.10;1.07;;;;;;;;;;5031670;28;20228;-74
2024/01/17 02:43:18;;;;;;;0.93;0.90;;;;;;;;;;5027306;28;20228;-74
2024/01/17 02:45:44;;;;;;;0.67;0.67;;;;;;;;;;5030556;28;20230;-74
2024/01/17 02:48:11;;;;;;;1.00;1.00;;;;;;;;;;5031233;28;20231;-74
2024/01/17 02:50:39;;;;;;;0.30;0.30;;;;;;;;;;5029584;28;21262;-74
2024/01/17 02:53:09;;;;;;;0.37;0.37;;;;;;;;;;5026821;28;20753;-74
2024/01/17 02:55:35;;;;;;;0.30;0.30;;;;;;;;;;5032461;28;20223;-74
2024/01/17 02:58:02;;;;;;;0.50;0.50;;;;;;;;;;5024630;28;20258;-75
2024/01/17 03:00:28;;;;;;;0.33;0.33;;;;;;;;;;5025557;28;20239;-74
2024/01/17 03:02:54;;;;;;;0.93;0.70;;;;;;;;;;5030034;28;20234;-74
2024/01/17 03:05:21;;;;;;;1.13;1.03;;;;;;;;;;5028358;28;20280;-74
2024/01/17 03:07:47;;;;;;;1.47;1.37;;;;;;;;;;5028321;28;20231;-74
2024/01/17 03:10:14;;;;;;;1.03;1.03;;;;;;;;;;5029662;28;20298;-74
2024/01/17 03:12:42;;;;;;;1.60;1.50;;;;;;;;;;5026659;28;20668;-74
2024/01/17 03:15:10;;;;;;;0.30;0.30;;;;;;;;;;5029273;28;20224;-74
2024/01/17 03:17:37;;;;;;;0.60;0.60;;;;;;;;;;5031831;28;20578;-74
2024/01/17 03:20:05;;;;;;;0.60;0.60;;;;;;;;;;5030007;28;20232;-74
2024/01/17 03:22:32;;;;;;;0.67;0.67;;;;;;;;;;5030469;28;20270;-75
2024/01/17 03:24:59;;;;;;;0.60;0.60;;;;;;;;;;5032270;28;20231;-73
2024/01/17 03:27:26;;;;;;;0.93;0.93;;;;;;;;;;5052713;28;20238;-74
2024/01/17 03:29:56;;;;;;;0.80;0.80;;;;;;;;;;5053385;28;20220;-75
2024/01/17 03:32:22;;;;;;;1.03;1.03;;;;;;;;;;5055672;28;20227;-75
2024/01/17 03:34:51;;;;;;;0.50;0.50;;;;;;;;;;5032004;28;20258;-74
2024/01/17 03:37:18;;;;;;;0.30;0.30;;;;;;;;;;5033036;28;20232;-74
2024/01/17 03:39:45;;;;;;;0.60;0.60;;;;;;;;;;5027728;28;20299;-74
2024/01/17 03:42:15;;;;;;;0.53;0.53;;;;;;;;;;5024978;28;20231;-74
2024/01/17 03:44:43;;;;;;;2.07;1.57;;;;;;;;;;5041081;28;20235;-75
2024/01/17 03:47:10;;;;;;;0.67;0.67;;;;;;;;;;5029943;28;20232;-74
2024/01/17 03:49:39;;;;;;;3.13;1.57;;;;;;;;;;5028654;28;20227;-74
2024/01/17 03:52:09;;;;;;;0.47;0.47;;;;;;;;;;5028477;28;20807;-74
2024/01/17 03:54:38;;;;;;;0.57;0.57;;;;;;;;;;5024212;28;20229;-74
2024/01/17 03:57:05;;;;;;;0.23;0.23;;;;;;;;;;5028391;28;21265;-74
2024/01/17 03:59:32;;;;;;;0.73;0.70;;;;;;;;;;5028531;28;20606;-74
2024/01/17 04:01:58;;;;;;;0.73;0.73;;;;;;;;;;5022622;28;20259;-74
2024/01/17 04:04:25;;;;;;;0.33;0.33;;;;;;;;;;5027707;28;20263;-74
2024/01/17 04:06:53;;;;;;;0.30;0.30;;;;;;;;;;5026853;28;20252;-74
2024/01/17 04:09:19;;;;;;;0.83;0.83;;;;;;;;;;5027137;28;20759;-74
2024/01/17 04:11:46;;;;;;;1.23;1.17;;;;;;;;;;5022567;28;20735;-74
2024/01/17 04:14:12;;;;;;;0.70;0.70;;;;;;;;;;5040047;28;20225;-74
2024/01/17 04:16:42;;;;;;;0.83;0.83;;;;;;;;;;5024774;28;20323;-74
2024/01/17 04:19:09;;;;;;;2.20;2.10;;;;;;;;;;5026407;28;20223;-74
2024/01/17 04:21:36;;;;;;;0.30;0.30;;;;;;;;;;5024159;28;20225;-74
2024/01/17 04:24:03;;;;;;;0.33;0.33;;;;;;;;;;5025210;28;20259;-74
2024/01/17 04:26:29;;;;;;;0.30;0.30;;;;;;;;;;5023488;28;20581;-74
2024/01/17 04:28:56;;;;;;;0.67;0.67;;;;;;;;;;5029580;28;20224;-74
2024/01/17 04:31:28;;;;;;;0.97;0.97;;;;;;;;;;5025620;28;20227;-74
2024/01/17 04:33:57;;;;;;;0.50;0.50;;;;;;;;;;5026587;28;20228;-74
2024/01/17 04:36:27;;;;;;;1.10;1.07;;;;;;;;;;5019487;28;20224;-74
2024/01/17 04:38:53;;;;;;;1.07;1.07;;;;;;;;;;5023910;28;20715;-74
2024/01/17 04:41:21;;;;;;;0.30;0.30;;;;;;;;;;5022629;28;20316;-74
2024/01/17 04:43:48;;;;;;;0.53;0.53;;;;;;;;;;5023342;28;20220;-74
2024/01/17 04:46:15;;;;;;;0.67;0.67;;;;;;;;;;5024846;28;20252;-75
2024/01/17 04:48:43;;;;;;;0.67;0.67;;;;;;;;;;5017681;28;20233;-74
2024/01/17 04:51:10;;;;;;;0.70;0.70;;;;;;;;;;5022240;28;20224;-74
2024/01/17 04:53:42;;;;;;;0.37;0.37;;;;;;;;;;5027975;28;20216;-74
2024/01/17 04:56:10;;;;;;;0.97;0.97;;;;;;;;;;5026059;28;20307;-75
2024/01/17 04:58:36;;;;;;;0.30;0.30;;;;;;;;;;5024114;28;20228;-75
2024/01/17 05:01:05;;;;;;;1.57;1.47;;;;;;;;;;5032152;28;20220;-75
2024/01/17 05:03:33;;;;;;;0.50;0.50;;;;;;;;;;5023105;28;20747;-75
2024/01/17 05:06:00;;;;;;;0.30;0.30;;;;;;;;;;5024004;28;20224;-75
2024/01/17 05:08:27;;;;;;;0.63;0.63;;;;;;;;;;5026146;28;20228;-75
2024/01/17 05:10:54;;;;;;;0.57;0.57;;;;;;;;;;5026317;28;20228;-75
2024/01/17 05:13:21;;;;;;;1.10;1.10;;;;;;;;;;5018594;28;20311;-75
2024/01/17 05:15:48;;;;;;;0.40;0.40;;;;;;;;;;5027869;28;20259;-75
2024/01/17 05:18:14;;;;;;;0.20;0.20;;;;;;;;;;5025756;28;20240;-75
2024/01/17 05:20:41;;;;;;;0.30;0.30;;;;;;;;;;5026344;28;20255;-75
2024/01/17 05:23:08;;;;;;;1.27;1.27;;;;;;;;;;5023705;28;20311;-75
2024/01/17 05:25:35;;;;;;;0.67;0.67;;;;;;;;;;5017973;28;20227;-75
2024/01/17 05:28:02;;;;;;;0.30;0.30;;;;;;;;;;5023632;28;20735;-75
2024/01/17 05:30:28;;;;;;;0.50;0.50;;;;;;;;;;5024881;28;20228;-75
2024/01/17 05:32:55;;;;;;;0.30;0.30;;;;;;;;;;5024160;28;20224;-75
2024/01/17 05:35:22;;;;;;;0.30;0.30;;;;;;;;;;5026888;28;20675;-75
2024/01/17 05:37:49;;;;;;;0.37;0.37;;;;;;;;;;5023434;28;20228;-75
2024/01/17 05:40:15;;;;;;;0.30;0.30;;;;;;;;;;5021229;28;20229;-75
2024/01/17 05:42:44;;;;;;;2.27;0.73;;;;;;;;;;5019733;28;20298;-75
2024/01/17 05:45:11;;;;;;;0.87;0.87;;;;;;;;;;5024214;28;20224;-75
2024/01/17 05:47:38;;;;;;;0.20;0.20;;;;;;;;;;5023253;28;20312;-75
2024/01/17 05:50:09;;;;;;;0.30;0.30;;;;;;;;;;5025253;28;20232;-77
2024/01/17 05:52:38;;;;;;;0.40;0.40;;;;;;;;;;5023511;28;20232;-74
2024/01/17 05:55:09;;;;;;;0.30;0.30;;;;;;;;;;5024604;28;20312;-74
2024/01/17 05:57:38;;;;;;;0.60;0.60;;;;;;;;;;5022171;28;20239;-74
2024/01/17 06:00:09;;;;;;;0.60;0.60;;;;;;;;;;5039072;28;20228;-74
2024/01/17 06:02:37;;;;;;;0.30;0.30;;;;;;;;;;5024359;28;20247;-74
2024/01/17 06:05:05;;;;;;;0.60;0.60;;;;;;;;;;5039713;28;20264;-74
2024/01/17 06:07:32;;;;;;;0.30;0.30;;;;;;;;;;5046696;28;20301;-75
2024/01/17 06:09:58;;;;;;;0.30;0.30;;;;;;;;;;5042488;28;20228;-74
2024/01/17 06:12:25;;;;;;;0.27;0.27;;;;;;;;;;5023785;28;20232;-74
2024/01/17 06:14:51;;;;;;;0.50;0.50;;;;;;;;;;5022454;28;20727;-74
2024/01/17 06:17:18;;;;;;;0.57;0.57;;;;;;;;;;5028143;28;20232;-74
2024/01/17 06:19:45;;;;;;;0.40;0.40;;;;;;;;;;5020454;28;20231;-76
2024/01/17 06:22:17;;;;;;;1.07;1.07;;;;;;;;;;5023363;28;20224;-74
2024/01/17 06:24:47;;;;;;;0.30;0.30;;;;;;;;;;5023864;28;20247;-74
2024/01/17 06:27:14;;;;;;;0.40;0.40;;;;;;;;;;5028026;28;20244;-74
2024/01/17 06:29:42;;;;;;;0.33;0.33;;;;;;;;;;5027461;28;20289;-74
2024/01/17 06:32:09;;;;;;;0.47;0.47;;;;;;;;;;5026243;28;20224;-75
2024/01/17 06:34:36;;;;;;;0.50;0.50;;;;;;;;;;5022937;28;20247;-74
2024/01/17 06:37:04;;;;;;;0.43;0.43;;;;;;;;;;5025294;28;20328;-74
2024/01/17 06:39:32;;;;;;;0.40;0.40;;;;;;;;;;5023192;28;20297;-74
2024/01/17 06:41:58;;;;;;;0.50;0.50;;;;;;;;;;5024269;28;20248;-74
2024/01/17 06:44:27;;;;;;;0.40;0.40;;;;;;;;;;5025119;28;20426;-74
2024/01/17 06:46:54;;;;;;;0.30;0.30;;;;;;;;;;5039963;28;20596;-74
2024/01/17 06:49:21;;;;;;;0.30;0.30;;;;;;;;;;5026827;28;20228;-74
2024/01/17 06:51:48;;;;;;;0.30;0.30;;;;;;;;;;5027152;28;20228;-74
2024/01/17 06:54:15;;;;;;;0.27;0.27;;;;;;;;;;5027137;28;20224;-74
2024/01/17 06:56:41;;;;;;;1.80;0.63;;;;;;;;;;5028132;28;20286;-74
2024/01/17 06:59:08;;;;;;;0.70;0.70;;;;;;;;;;5025805;28;20267;-74
2024/01/17 07:01:35;;;;;;;0.50;0.50;;;;;;;;;;5025444;28;20232;-73
2024/01/17 07:04:02;;;;;;;0.20;0.20;;;;;;;;;;5021889;28;21010;-74
2024/01/17 07:06:28;;;;;;;0.67;0.67;;;;;;;;;;5028315;28;20231;-73
2024/01/17 07:08:55;;;;;;;0.40;0.40;;;;;;;;;;5026484;28;20235;-74
2024/01/17 07:11:21;;;;;;;0.20;0.20;;;;;;;;;;5022549;28;20232;-74
2024/01/17 07:13:48;;;;;;;0.40;0.40;;;;;;;;;;5024658;28;20720;-74
2024/01/17 07:16:15;;;;;;;0.23;0.23;;;;;;;;;;5026409;28;20224;-74
2024/01/17 07:18:42;;;;;;;0.50;0.50;;;;;;;;;;5024166;28;20282;-73
2024/01/17 07:21:08;;;;;;;0.37;0.37;;;;;;;;;;5025884;28;20578;-74
2024/01/17 07:23:37;;;;;;;0.30;0.30;;;;;;;;;;5027430;28;20716;-74
2024/01/17 07:26:04;;;;;;;0.20;0.20;;;;;;;;;;5027153;28;20287;-74
2024/01/17 07:28:30;;;;;;;0.30;0.30;;;;;;;;;;5027348;28;20228;-74
2024/01/17 07:30:56;;;;;;;0.63;0.63;;;;;;;;;;5032917;28;20232;-74
2024/01/17 07:33:23;;;;;;;0.30;0.30;;;;;;;;;;5037892;28;20228;-74
2024/01/17 07:35:50;;;;;;;0.30;0.30;;;;;;;;;;5040295;28;20226;-74
2024/01/17 07:38:16;;;;;;;4.40;0.80;;;;;;;;;;5040042;28;20323;-74
2024/01/17 07:40:43;;;;;;;0.30;0.30;;;;;;;;;;5033372;28;20229;-74
2024/01/17 07:43:09;;;;;;;0.20;0.20;;;;;;;;;;5026683;28;20315;-73
2024/01/17 07:45:36;;;;;;;1.00;0.93;;;;;;;;;;5027966;28;20275;-74
2024/01/17 07:48:03;;;;;;;0.40;0.40;;;;;;;;;;5027041;28;20707;-73
2024/01/17 07:50:30;;;;;;;1.13;1.13;;;;;;;;;;5031161;28;20319;-73
2024/01/17 07:52:56;;;;;;;0.47;0.47;;;;;;;;;;5027518;28;20236;-73
2024/01/17 07:55:23;;;;;;;0.30;0.30;;;;;;;;;;5028457;28;20224;-74
2024/01/17 07:57:49;;;;;;;0.20;0.20;;;;;;;;;;5025434;28;20230;-74
2024/01/17 08:00:16;;;;;;;0.30;0.30;;;;;;;;;;5035241;28;20310;-74
2024/01/17 08:02:42;;;;;;;0.60;0.60;;;;;;;;;;5027954;28;20259;-74
2024/01/17 08:05:11;;;;;;;0.30;0.30;;;;;;;;;;5028390;28;20278;-74
2024/01/17 08:07:37;;;;;;;0.30;0.30;;;;;;;;;;5027048;28;20223;-74
2024/01/17 08:10:09;;;;;;;0.37;0.37;;;;;;;;;;5030034;28;20688;-73
2024/01/17 08:12:35;;;;;;;0.30;0.30;;;;;;;;;;5025596;28;20620;-74
2024/01/17 08:15:02;;;;;;;0.40;0.40;;;;;;;;;;5026310;28;20311;-74
2024/01/17 08:17:29;;;;;;;0.60;0.60;;;;;;;;;;5027409;28;20260;-74
2024/01/17 08:19:58;;;;;;;0.30;0.30;;;;;;;;;;5025222;28;20264;-74
2024/01/17 08:22:25;;;;;;;0.30;0.30;;;;;;;;;;5028959;28;20263;-74
2024/01/17 08:24:51;;;;;;;0.20;0.20;;;;;;;;;;5028229;28;20224;-74
2024/01/17 08:27:18;;;;;;;1.07;1.03;;;;;;;;;;5028876;28;20224;-73
2024/01/17 08:29:46;;;;;;;0.30;0.30;;;;;;;;;;5028288;28;20315;-74
2024/01/17 08:32:13;;;;;;;0.60;0.60;;;;;;;;;;5044505;28;20242;-73
2024/01/17 08:34:39;;;;;;;0.20;0.20;;;;;;;;;;5027354;28;20255;-74
2024/01/17 08:37:06;;;;;;;0.27;0.27;;;;;;;;;;5028311;28;20232;-74
2024/01/17 08:39:32;;;;;;;0.20;0.20;;;;;;;;;;5024798;28;20233;-74
2024/01/17 08:41:59;;;;;;;0.50;0.50;;;;;;;;;;5029544;28;20224;-74
2024/01/17 08:44:26;;;;;;;0.30;0.30;;;;;;;;;;5033441;28;20208;-75
2024/01/17 08:46:53;;;;;;;1.57;1.47;;;;;;;;;;5046766;28;20239;-75
2024/01/17 08:49:20;;;;;;;0.30;0.30;;;;;;;;;;5040029;28;20238;-74
2024/01/17 08:51:47;;;;;;;0.40;0.40;;;;;;;;;;5024353;28;20229;-74
2024/01/17 08:54:13;;;;;;;0.20;0.20;;;;;;;;;;5027275;28;20228;-74
2024/01/17 08:56:40;;;;;;;0.30;0.30;;;;;;;;;;5026870;28;20224;-74
2024/01/17 08:59:07;;;;;;;0.30;0.30;;;;;;;;;;5025997;28;20259;-74
2024/01/17 09:01:37;;;;;;;0.30;0.30;;;;;;;;;;5024733;28;20219;-74
2024/01/17 09:04:04;;;;;;;0.30;0.30;;;;;;;;;;5026872;28;20231;-74
2024/01/17 09:06:30;;;;;;;0.30;0.30;;;;;;;;;;5024776;28;20227;-74
2024/01/17 09:08:56;;;;;;;0.30;0.30;;;;;;;;;;5026292;28;20259;-73
2024/01/17 09:11:24;;;;;;;0.27;0.27;;;;;;;;;;5027054;28;20256;-74
2024/01/17 09:13:50;;;;;;;0.50;0.50;;;;;;;;;;5025823;28;20224;-73
2024/01/17 09:16:16;;;;;;;1.93;0.93;;;;;;;;;;5026747;28;20242;-73
2024/01/17 09:18:43;;;;;;;0.20;0.20;;;;;;;;;;5027326;28;20227;-73
2024/01/17 09:21:10;;;;;;;0.30;0.30;;;;;;;;;;5024199;28;20232;-74
2024/01/17 09:23:37;;;;;;;0.20;0.20;;;;;;;;;;5028019;28;20255;-74
2024/01/17 09:26:04;;;;;;;0.30;0.30;;;;;;;;;;5024999;28;20925;-74
2024/01/17 09:28:32;;;;;;;0.20;0.20;;;;;;;;;;5021557;28;20240;-74
2024/01/17 09:30:58;;;;;;;0.40;0.40;;;;;;;;;;5026433;28;20227;-74
2024/01/17 09:33:25;;;;;;;0.27;0.27;;;;;;;;;;5024177;28;20307;-74
2024/01/17 09:35:51;;;;;;;0.30;0.30;;;;;;;;;;5023041;28;20869;-74
2024/01/17 09:38:27;;;;;;;0.57;0.57;;;;;;;;;;5029449;28;20265;-74
2024/01/17 09:40:54;;;;;;;0.30;0.30;;;;;;;;;;5026247;28;20235;-74
2024/01/17 09:43:20;;;;;;;0.27;0.27;;;;;;;;;;5024160;28;20227;-74
2024/01/17 09:45:47;;;;;;;0.20;0.20;;;;;;;;;;5025910;28;20314;-74
2024/01/17 09:48:15;;;;;;;0.47;0.47;;;;;;;;;;5027404;28;20227;-74
2024/01/17 09:50:44;;;;;;;0.30;0.30;;;;;;;;;;5023288;28;20228;-74
2024/01/17 09:53:12;;;;;;;0.40;0.40;;;;;;;;;;5022770;28;20323;-74
2024/01/17 09:55:41;;;;;;;0.30;0.30;;;;;;;;;;5026292;28;20235;-74
2024/01/17 09:58:09;;;;;;;0.83;0.83;;;;;;;;;;5025558;28;20243;-74
2024/01/17 10:00:36;;;;;;;0.20;0.20;;;;;;;;;;5027530;28;20224;-74
2024/01/17 10:03:26;;;;;;;0.37;0.37;;;;;;;;;;5025864;28;20231;-74
2024/01/17 10:05:54;;;;;;;0.20;0.20;;;;;;;;;;5025732;28;20338;-74
2024/01/17 10:08:21;;;;;;;0.30;0.30;;;;;;;;;;5025555;28;20712;-74
2024/01/17 10:10:48;;;;;;;0.20;0.20;;;;;;;;;;5024979;28;20335;-74
2024/01/17 10:13:14;;;;;;;0.50;0.50;;;;;;;;;;5024616;28;20598;-74
2024/01/17 10:15:47;;;;;;;0.30;0.30;;;;;;;;;;5025155;28;20231;-74
2024/01/17 10:18:15;;;;;;;0.20;0.20;;;;;;;;;;5024194;28;20224;-74
2024/01/17 10:20:42;;;;;;;0.30;0.30;;;;;;;;;;5025145;28;20308;-74
2024/01/17 10:23:08;;;;;;;0.30;0.30;;;;;;;;;;5025100;28;20652;-74
2024/01/17 10:25:40;;;;;;;0.30;0.30;;;;;;;;;;5024759;28;20243;-74
2024/01/17 10:28:07;;;;;;;0.30;0.30;;;;;;;;;;5024523;28;20306;-74
2024/01/17 10:30:36;;;;;;;0.20;0.20;;;;;;;;;;5037870;28;20236;-74
2024/01/17 10:33:04;;;;;;;0.27;0.27;;;;;;;;;;5026017;28;20232;-74
2024/01/17 10:35:31;;;;;;;0.60;0.60;;;;;;;;;;5026186;28;20220;-75
2024/01/17 10:37:57;;;;;;;0.30;0.30;;;;;;;;;;5020818;28;20236;-75
2024/01/17 10:40:25;;;;;;;0.20;0.20;;;;;;;;;;5026333;28;20224;-75
2024/01/17 10:43:13;;;;;;;0.20;0.20;;;;;;;;;;5023936;28;20227;-75
2024/01/17 10:45:42;;;;;;;0.20;0.20;;;;;;;;;;5025847;28;20259;-75
2024/01/17 10:48:08;;;;;;;0.73;0.73;;;;;;;;;;5026466;28;20228;-74
2024/01/17 10:50:35;;;;;;;0.30;0.30;;;;;;;;;;5027710;28;20234;-74
2024/01/17 10:53:08;;;;;;;1.60;1.50;;;;;;;;;;5023420;28;20251;-74
2024/01/17 10:55:36;;;;;;;0.20;0.20;;;;;;;;;;5021050;28;20224;-75
2024/01/17 10:58:10;;;;;;;0.20;0.20;;;;;;;;;;5024622;28;20700;-75
2024/01/17 11:00:41;;;;;;;0.30;0.30;;;;;;;;;;5047865;28;20231;-75
2024/01/17 11:03:17;;;;;;;0.20;0.20;;;;;;;;;;5027573;28;20322;-75
2024/01/17 11:05:48;;;;;;;0.30;0.30;;;;;;;;;;5022773;28;20327;-75
2024/01/17 11:08:16;;;;;;;0.30;0.30;;;;;;;;;;5028633;28;20283;-75
2024/01/17 11:10:44;;;;;;;0.20;0.20;;;;;;;;;;5031176;28;20227;-75
2024/01/17 11:13:13;;;;;;;0.20;0.20;;;;;;;;;;5029244;28;20240;-75
2024/01/17 11:15:43;;;;;;;0.20;0.20;;;;;;;;;;5030035;28;20236;-76
2024/01/17 11:18:34;;;;;;;0.60;0.60;;;;;;;;;;5042423;28;20319;-91
2024/01/17 11:21:03;;;;;;;0.20;0.20;;;;;;;;;;5028838;28;20293;-78
2024/01/17 11:23:40;;;;;;;0.20;0.20;;;;;;;;;;5043596;28;20216;-79
2024/01/17 11:26:27;;;;;;;0.63;0.63;;;;;;;;;;5070947;28;20243;-78
2024/01/17 11:29:00;;;;;;;0.20;0.20;;;;;;;;;;5038809;28;20238;-78
2024/01/17 11:31:38;;;;;;;0.20;0.20;;;;;;;;;;5027182;28;20239;-78
2024/01/17 11:34:05;;;;;;;1.50;1.13;;;;;;;;;;5026254;28;20632;-79
2024/01/17 11:36:43;;;;;;;0.27;0.27;;;;;;;;;;5027986;28;20240;-78
2024/01/17 11:39:19;;;;;;;1.70;1.23;;;;;;;;;;5029306;28;20235;-78
2024/01/17 11:41:49;;;;;;;0.30;0.30;;;;;;;;;;5027363;28;20278;-78
2024/01/17 11:44:20;;;;;;;0.30;0.30;;;;;;;;;;5030239;28;20232;-78
2024/01/17 11:46:51;;;;;;;0.20;0.20;;;;;;;;;;5028069;28;20314;-80
2024/01/17 11:49:39;;;;;;;0.20;0.20;;;;;;;;;;5044360;28;20305;-79
2024/01/17 11:52:31;;;;;;;0.30;0.30;;;;;;;;;;5025921;28;20242;-79
2024/01/17 11:55:02;;;;;;;0.40;0.40;;;;;;;;;;5028238;28;20701;-79
2024/01/17 11:57:32;;;;;;;0.30;0.30;;;;;;;;;;5026017;28;20244;-79
2024/01/17 12:00:04;;;;;;;0.30;0.30;;;;;;;;;;5026997;28;20232;-79
2024/01/17 12:02:37;;;;;;;0.30;0.30;;;;;;;;;;5026810;28;20728;-78
2024/01/17 12:05:08;;;;;;;0.20;0.20;;;;;;;;;;5028968;28;20231;-79
2024/01/17 12:07:41;;;;;;;0.30;0.30;;;;;;;;;;5026088;28;20314;-78
2024/01/17 12:10:12;;;;;;;0.30;0.30;;;;;;;;;;5024632;28;20220;-79
2024/01/17 12:12:42;;;;;;;0.20;0.20;;;;;;;;;;5026785;28;20235;-79
2024/01/17 12:15:12;;;;;;;0.30;0.30;;;;;;;;;;5041089;28;20228;-79
2024/01/17 12:17:41;;;;;;;0.20;0.20;;;;;;;;;;5023023;28;20611;-79
2024/01/17 12:20:08;;;;;;;0.20;0.20;;;;;;;;;;5023878;28;20252;-79
2024/01/17 12:22:35;;;;;;;0.30;0.30;;;;;;;;;;5022490;28;20708;-79
2024/01/17 12:25:02;;;;;;;0.20;0.20;;;;;;;;;;5035650;28;20228;-78
2024/01/17 12:27:32;;;;;;;0.30;0.30;;;;;;;;;;5034983;28;20294;-79
2024/01/17 12:30:02;;;;;;;0.20;0.20;;;;;;;;;;5022478;28;20313;-78
2024/01/17 12:32:29;;;;;;;0.30;0.30;;;;;;;;;;5026911;28;20278;-78
2024/01/17 12:34:56;;;;;;;0.30;0.30;;;;;;;;;;5028890;28;20235;-79
2024/01/17 12:37:23;;;;;;;0.20;0.20;;;;;;;;;;5026601;28;20315;-78
2024/01/17 12:39:50;;;;;;;0.80;0.80;;;;;;;;;;5028446;28;20234;-77
2024/01/17 12:42:17;;;;;;;0.73;0.73;;;;;;;;;;5040426;28;20229;-79
2024/01/17 12:44:44;;;;;;;0.30;0.30;;;;;;;;;;5044763;28;20303;-79
2024/01/17 12:47:13;;;;;;;0.20;0.20;;;;;;;;;;5017695;28;20229;-78
2024/01/17 12:49:39;;;;;;;0.20;0.20;;;;;;;;;;5021011;28;20220;-78
2024/01/17 12:52:05;;;;;;;0.23;0.23;;;;;;;;;;5026821;28;20262;-78
2024/01/17 12:54:32;;;;;;;0.23;0.23;;;;;;;;;;5023626;28;20715;-78
2024/01/17 12:56:58;;;;;;;0.30;0.30;;;;;;;;;;5023948;28;20945;-79
2024/01/17 12:59:25;;;;;;;0.70;0.43;;;;;;;;;;5025391;28;20239;-79
2024/01/17 13:01:57;;;;;;;0.30;0.30;;;;;;;;;;5026932;28;20298;-78
2024/01/17 13:04:24;;;;;;;0.50;0.50;;;;;;;;;;5025168;28;20227;-78
2024/01/17 13:06:51;;;;;;;0.30;0.30;;;;;;;;;;5028303;28;20244;-78
2024/01/17 13:09:22;;;;;;;0.30;0.30;;;;;;;;;;5041850;28;20580;-78
2024/01/17 13:11:50;;;;;;;1.57;1.47;;;;;;;;;;5027085;28;20228;-77
2024/01/17 13:14:21;;;;;;;0.20;0.20;;;;;;;;;;5029641;28;20232;-78
2024/01/17 13:16:48;;;;;;;0.20;0.20;;;;;;;;;;5022173;28;20239;-79
2024/01/17 13:19:15;;;;;;;0.27;0.27;;;;;;;;;;5028801;28;20234;-78
2024/01/17 13:21:42;;;;;;;0.30;0.30;;;;;;;;;;5025010;28;20862;-79
2024/01/17 13:24:10;;;;;;;0.33;0.33;;;;;;;;;;5041219;28;20230;-80
2024/01/17 13:26:39;;;;;;;0.30;0.30;;;;;;;;;;5021884;28;20620;-79
2024/01/17 13:29:07;;;;;;;0.30;0.30;;;;;;;;;;5025324;28;20226;-78
2024/01/17 13:31:34;;;;;;;0.20;0.20;;;;;;;;;;5044006;28;20231;-79
2024/01/17 13:34:04;;;;;;;0.30;0.30;;;;;;;;;;5026899;28;20279;-78
2024/01/17 13:36:32;;;;;;;0.20;0.20;;;;;;;;;;5020578;28;20576;-78
2024/01/17 13:38:59;;;;;;;0.30;0.30;;;;;;;;;;5028360;28;20666;-78
2024/01/17 13:41:26;;;;;;;0.30;0.30;;;;;;;;;;5042792;28;20239;-80
2024/01/17 13:43:55;;;;;;;0.27;0.27;;;;;;;;;;5026376;28;20219;-79
2024/01/17 13:46:23;;;;;;;0.30;0.30;;;;;;;;;;5029287;28;20994;-80
2024/01/17 13:48:54;;;;;;;0.20;0.20;;;;;;;;;;5020677;28;20617;-77
2024/01/17 13:51:24;;;;;;;0.23;0.23;;;;;;;;;;5025675;28;20663;-77
2024/01/17 13:53:53;;;;;;;0.30;0.30;;;;;;;;;;5031043;28;20234;-77
2024/01/17 13:56:20;;;;;;;0.63;0.40;;;;;;;;;;5022065;28;20732;-79
2024/01/17 13:58:47;;;;;;;0.37;0.37;;;;;;;;;;5023398;28;20658;-77
2024/01/17 14:01:18;;;;;;;0.80;0.80;;;;;;;;;;5034206;28;20234;-77
2024/01/17 14:03:47;;;;;;;0.27;0.27;;;;;;;;;;5024564;28;20219;-77
2024/01/17 14:06:14;;;;;;;0.20;0.20;;;;;;;;;;5038049;28;20239;-79
2024/01/17 14:08:41;;;;;;;0.47;0.47;;;;;;;;;;5054748;28;20223;-79
2024/01/17 14:11:12;;;;;;;0.37;0.37;;;;;;;;;;5072453;28;20243;-83
2024/01/17 14:13:40;;;;;;;0.47;0.47;;;;;;;;;;5033810;28;20231;-76
2024/01/17 14:16:06;;;;;;;0.30;0.30;;;;;;;;;;5023642;28;20228;-77
2024/01/17 14:18:33;;;;;;;0.30;0.30;;;;;;;;;;5028185;28;20231;-77
2024/01/17 14:21:00;;;;;;;0.20;0.20;;;;;;;;;;5039662;28;20286;-78
2024/01/17 14:23:27;;;;;;;0.23;0.23;;;;;;;;;;5042414;28;20713;-77
2024/01/17 14:25:54;;;;;;;0.20;0.20;;;;;;;;;;5028406;28;20231;-79
2024/01/17 14:28:20;;;;;;;0.43;0.43;;;;;;;;;;5020958;28;20237;-77
2024/01/17 14:30:47;;;;;;;0.30;0.30;;;;;;;;;;5029978;28;20232;-78
2024/01/17 14:33:18;;;;;;;0.30;0.30;;;;;;;;;;5028716;28;20326;-77
2024/01/17 14:35:46;;;;;;;0.33;0.33;;;;;;;;;;5043138;28;20669;-79
2024/01/17 14:38:19;;;;;;;0.30;0.30;;;;;;;;;;5023116;28;20266;-81
2024/01/17 14:40:48;;;;;;;0.30;0.30;;;;;;;;;;5024426;28;20575;-77
2024/01/17 14:43:15;;;;;;;0.20;0.20;;;;;;;;;;5022195;28;20224;-77
2024/01/17 14:45:42;;;;;;;0.30;0.30;;;;;;;;;;5025041;28;20298;-77
2024/01/17 14:48:09;;;;;;;0.20;0.20;;;;;;;;;;5024652;28;20224;-76